Waterville, ME

1:21 AM EST on March 02, 2015 (GMT -0500)
Wiscasset | Change Station
CLOSE
Current Station
Airport
Location: Wiscasset,
Elevation: 69 ft
Nearby Weather Stations

Elev 69 ft 43.96 °N, 69.71 °W | Updated 11 minutes ago

Snow
Snow
26 °F
Feels Like 22 °F
N
4
Wind Variable Wind from WSW

Today
High -- | Low -- °F
--% Chance of Precip.
Yesterday
High -- | Low -- °F
Precip. -- in
6:14 AM 5:27 PM
Waxing Gibbous, 89% visible
Pressure 30.05 in
Visibility 2.5 miles
Clouds Overcast 2700 ft
Windchill 22 °F
Dew Point 24 °F
Humidity 92%
Rainfall 0.00 in
Snow Depth Not available.
UV 0 out of 12
Pollen .10 out of 12
Air Quality Not available.
Flu Activity Not available.
SPECI KIWI 020610Z AUTO 24003KT 2 1/2SM -SN BR OVC027 M03/M04 A3005 RMK AO2 P0000 T10331044

More Conditions Fewer Conditions

Pressure 30.05 in
Visibility 2.5 miles
Clouds Overcast 2700 ft
Windchill 22 °F
Dew Point 24 °F
Humidity 92%
Rainfall 0.00 in
Snow Depth Not available.
UV 0 out of 12
Pollen .10 out of 12
Air Quality Not available.
Flu Activity Not available.
SPECI KIWI 020610Z AUTO 24003KT 2 1/2SM -SN BR OVC027 M03/M04 A3005 RMK AO2 P0000 T10331044

More Conditions Fewer Conditions

10-Day Weather Forecast

Almanac

Astronomy

Mar. 02, 2015 Rise Set
Actual Time
Civil Twilight
Nautical Twilight
Astronomical Twilight
Moon
Length of Visible Light
Length of Day
Tomorrow will be .
, % of the Moon is Illuminated

Today's Extremes

State Highs State Lows

Community

WunderPhotos

Upload Photos

1,801,738 photos uploaded!

WunderBlogs® & News

Nearby

Air Quality

  Air Quality AQ Index Pollutant
Not available.

Snow Depth

Station Depth Elevation

Earthquake Activity

City Distance Mag. Time & Date
Minimum magnitude displayed is 2.5.

Coastal Water Temperatures

Place Temperature

Nearby Weather Stations